createdAt,value
2022-08-07T00:02:40.730Z,98411.75
2022-08-07T00:05:06.167Z,98403.03
2022-08-07T00:07:40.360Z,98413.25
2022-08-07T00:10:30.685Z,98405.44
2022-08-07T00:13:23.447Z,98415.97
2022-08-07T00:15:53.135Z,98421.91
2022-08-07T00:18:25.281Z,98418.50
2022-08-07T00:21:02.020Z,98419.63
2022-08-07T00:23:36.272Z,98417.88
2022-08-07T00:26:18.867Z,98425.13
2022-08-07T00:28:59.952Z,98421.78
2022-08-07T00:31:38.098Z,98429.63
2022-08-07T00:34:11.039Z,98421.88
2022-08-07T00:36:42.930Z,98426.00
2022-08-07T00:39:16.566Z,98427.09
2022-08-07T00:42:01.400Z,98413.84
2022-08-07T00:44:33.598Z,98417.22
2022-08-07T00:47:02.859Z,98420.25
2022-08-07T00:50:19.991Z,98415.25
2022-08-07T00:52:21.294Z,98408.81
2022-08-07T00:54:53.584Z,98405.31
2022-08-07T00:57:25.831Z,98408.34
2022-08-07T00:59:55.645Z,98412.00
2022-08-07T01:02:28.410Z,98409.25
2022-08-07T01:04:59.982Z,98410.38
2022-08-07T01:07:31.151Z,98405.03
2022-08-07T01:10:06.513Z,98405.38
2022-08-07T01:12:53.267Z,98399.06
2022-08-07T01:15:35.879Z,98399.09
2022-08-07T01:18:17.074Z,98408.41
2022-08-07T01:21:22.498Z,98409.84
2022-08-07T01:23:55.257Z,98405.06
2022-08-07T01:26:26.066Z,98405.03
2022-08-07T01:28:57.053Z,98404.94
2022-08-07T01:31:41.678Z,98404.81
2022-08-07T01:34:14.138Z,98401.91
2022-08-07T01:36:52.536Z,98401.91
2022-08-07T01:39:41.087Z,98401.09
2022-08-07T01:42:56.946Z,98405.13
2022-08-07T01:45:36.914Z,98405.41
2022-08-07T01:48:19.995Z,98412.97
2022-08-07T01:51:24.258Z,98417.78
2022-08-07T01:54:09.130Z,98405.22
2022-08-07T01:56:53.025Z,98404.91
2022-08-07T01:59:31.149Z,98393.69
2022-08-07T02:02:10.305Z,98383.44
2022-08-07T02:04:55.714Z,98379.22
2022-08-07T02:07:35.748Z,98381.19
2022-08-07T02:10:18.429Z,98381.00
2022-08-07T02:12:50.811Z,98379.75
2022-08-07T02:15:29.250Z,98378.97
2022-08-07T02:18:01.339Z,98383.78
2022-08-07T02:20:34.232Z,98377.31
2022-08-07T02:23:07.555Z,98382.94
2022-08-07T02:26:31.942Z,98379.34
2022-08-07T02:28:36.041Z,98375.53
2022-08-07T02:31:27.953Z,98380.66
2022-08-07T02:34:10.947Z,98382.19
2022-08-07T02:36:49.542Z,98383.00
2022-08-07T02:39:43.702Z,98370.94
2022-08-07T02:42:16.313Z,98371.88
2022-08-07T02:44:51.880Z,98369.03
2022-08-07T02:47:26.718Z,98372.25
2022-08-07T02:50:07.645Z,98370.34
2022-08-07T02:52:48.654Z,98367.44
2022-08-07T02:55:27.618Z,98370.66
2022-08-07T02:58:16.668Z,98367.28
2022-08-07T03:00:56.032Z,98358.41
2022-08-07T03:03:42.048Z,98352.47
2022-08-07T03:06:32.075Z,98345.59
2022-08-07T03:09:03.093Z,98357.53
2022-08-07T03:11:38.593Z,98352.06
2022-08-07T03:14:11.946Z,98356.09
2022-08-07T03:16:41.792Z,98362.69
2022-08-07T03:19:13.697Z,98355.94
2022-08-07T03:21:50.586Z,98349.03
2022-08-07T03:24:27.188Z,98348.22
2022-08-07T03:27:03.563Z,98350.63
2022-08-07T03:29:52.129Z,98348.22
2022-08-07T03:32:29.551Z,98353.19
2022-08-07T03:35:17.501Z,98352.88
2022-08-07T03:37:55.405Z,98351.13
2022-08-07T03:40:36.551Z,98353.25
2022-08-07T03:43:14.633Z,98359.25
2022-08-07T03:45:50.190Z,98364.69
2022-08-07T03:48:25.863Z,98362.47
2022-08-07T03:50:57.882Z,98363.28
2022-08-07T03:54:33.448Z,98358.09
2022-08-07T03:56:33.315Z,98349.75
2022-08-07T03:59:13.137Z,98354.09
2022-08-07T04:01:51.079Z,98362.63
2022-08-07T04:04:24.313Z,98363.59
2022-08-07T04:07:00.188Z,98361.47
2022-08-07T04:09:45.478Z,98371.78
2022-08-07T04:12:26.932Z,98371.44
2022-08-07T04:15:00.160Z,98365.66
2022-08-07T04:18:31.940Z,98372.41
2022-08-07T04:20:23.289Z,98367.88
2022-08-07T04:23:01.518Z,98373.34
2022-08-07T04:25:36.057Z,98372.69
2022-08-07T04:28:10.264Z,98363.84
2022-08-07T04:30:55.486Z,98369.00
2022-08-07T04:33:35.401Z,98371.50
2022-08-07T04:36:09.716Z,98378.88
2022-08-07T04:38:40.546Z,98373.28
2022-08-07T04:41:19.195Z,98375.22
2022-08-07T04:44:09.770Z,98364.88
2022-08-07T04:47:07.588Z,98368.44
2022-08-07T04:49:57.922Z,98374.66
2022-08-07T04:52:46.945Z,98372.84
2022-08-07T04:58:11.834Z,98377.09
2022-08-07T04:59:16.963Z,98378.59
2022-08-07T05:01:41.718Z,98376.28
2022-08-07T05:04:19.722Z,98375.00
2022-08-07T05:07:19.516Z,98371.41
2022-08-07T05:10:00.835Z,98378.56
2022-08-07T05:12:51.328Z,98372.75
2022-08-07T05:15:31.186Z,98383.47
2022-08-07T05:18:09.261Z,98387.38
2022-08-07T05:20:46.850Z,98381.03
2022-08-07T05:23:39.280Z,98374.19
2022-08-07T05:26:23.730Z,98382.56
2022-08-07T05:29:04.342Z,98383.16
2022-08-07T05:31:39.623Z,98377.47
2022-08-07T05:34:18.030Z,98374.38
2022-08-07T05:36:52.742Z,98371.88
2022-08-07T05:40:13.645Z,98369.47
2022-08-07T05:42:34.562Z,98375.09
2022-08-07T05:45:14.415Z,98370.50
2022-08-07T05:48:02.498Z,98376.03
2022-08-07T05:50:45.354Z,98374.31
2022-08-07T05:54:12.474Z,98373.06
2022-08-07T05:56:12.505Z,98372.91
2022-08-07T05:58:52.330Z,98370.06
2022-08-07T06:01:34.876Z,98377.34
2022-08-07T06:04:08.070Z,98382.72
2022-08-07T06:06:46.339Z,98376.28
2022-08-07T06:09:20.264Z,98374.06
2022-08-07T06:12:10.691Z,98376.53
2022-08-07T06:14:49.603Z,98385.94
2022-08-07T06:17:22.501Z,98370.47
2022-08-07T06:20:03.949Z,98365.69
2022-08-07T06:22:40.230Z,98369.88
2022-08-07T06:25:40.827Z,98350.66
2022-08-07T06:28:27.307Z,98359.38
2022-08-07T06:30:58.656Z,98353.03
2022-08-07T06:33:29.566Z,98350.97
2022-08-07T06:36:11.940Z,98352.66
2022-08-07T06:38:51.298Z,98360.38
2022-08-07T06:42:02.655Z,98357.13
2022-08-07T06:44:34.202Z,98357.47
2022-08-07T06:47:10.567Z,98352.31
2022-08-07T06:49:51.793Z,98348.81
2022-08-07T06:52:36.018Z,98356.50
2022-08-07T06:55:31.198Z,98348.75
2022-08-07T06:58:10.904Z,98352.75
2022-08-07T07:00:59.013Z,98340.38
2022-08-07T07:03:48.787Z,98339.34
2022-08-07T07:06:26.246Z,98342.13
2022-08-07T07:08:56.801Z,98345.22
2022-08-07T07:12:08.195Z,98337.59
2022-08-07T07:14:19.222Z,98342.25
2022-08-07T07:16:58.672Z,98341.63
2022-08-07T07:19:57.204Z,98342.81
2022-08-07T07:22:36.413Z,98341.63
2022-08-07T07:26:33.837Z,98338.94
2022-08-07T07:28:29.589Z,98333.09
2022-08-07T07:31:05.576Z,98332.19
2022-08-07T07:33:40.223Z,98326.41
2022-08-07T07:36:13.481Z,98318.41
2022-08-07T07:38:47.637Z,98314.69
2022-08-07T07:41:19.432Z,98315.38
2022-08-07T07:44:16.972Z,98315.53
2022-08-07T07:46:55.340Z,98317.25
2022-08-07T07:50:35.168Z,98314.81
2022-08-07T07:52:23.463Z,98306.75
2022-08-07T07:54:52.852Z,98314.91
2022-08-07T07:57:43.622Z,98309.41
2022-08-07T08:00:29.053Z,98303.16
2022-08-07T08:03:08.006Z,98303.53
2022-08-07T08:05:54.846Z,98296.78
2022-08-07T08:08:36.961Z,98291.97
2022-08-07T08:11:15.997Z,98298.69
2022-08-07T08:13:54.505Z,98296.72
2022-08-07T08:16:35.517Z,98293.63
2022-08-07T08:19:09.932Z,98294.66
2022-08-07T08:22:10.603Z,98294.38
2022-08-07T08:25:18.616Z,98290.44
2022-08-07T08:28:39.197Z,98287.25
2022-08-07T08:35:55.903Z,98282.09
2022-08-07T08:38:38.607Z,98279.28
2022-08-07T08:41:22.940Z,98280.47
2022-08-07T08:44:07.857Z,98279.25
2022-08-07T08:46:52.774Z,98266.50
2022-08-07T08:49:32.695Z,98276.50
2022-08-07T08:52:16.478Z,98281.94
2022-08-07T08:55:01.256Z,98274.03
2022-08-07T08:57:45.430Z,98272.41
2022-08-07T09:00:16.739Z,98271.41
2022-08-07T09:02:57.953Z,98271.28
2022-08-07T09:05:41.915Z,98268.22
2022-08-07T09:08:30.886Z,98267.41
2022-08-07T09:11:24.493Z,98267.41
2022-08-07T09:14:15.876Z,98272.97
2022-08-07T09:17:01.214Z,98259.06
2022-08-07T09:19:55.239Z,98253.91
2022-08-07T09:24:33.898Z,98262.22
2022-08-07T09:25:54.419Z,98251.03
2022-08-07T09:29:24.538Z,98255.78
2022-08-07T09:31:49.458Z,98263.81
2022-08-07T09:34:27.303Z,98260.66
2022-08-07T09:37:07.765Z,98262.91
2022-08-07T09:39:59.450Z,98242.28
2022-08-07T09:42:47.774Z,98251.19
2022-08-07T09:47:27.671Z,98252.94
2022-08-07T09:49:59.768Z,98241.81
2022-08-07T09:52:16.513Z,98232.78
2022-08-07T09:55:00.187Z,98229.78
2022-08-07T09:58:35.632Z,98222.97
2022-08-07T10:01:53.811Z,98228.84
2022-08-07T10:04:57.118Z,98227.22
2022-08-07T10:07:55.366Z,98221.19
2022-08-07T10:11:16.362Z,98220.16
2022-08-07T10:14:02.225Z,98211.47
2022-08-07T10:17:16.558Z,98211.03
2022-08-07T10:20:08.005Z,98207.78
2022-08-07T10:23:13.197Z,98203.88
2022-08-07T10:26:05.814Z,98196.19
2022-08-07T10:28:59.327Z,98199.03
2022-08-07T10:31:50.470Z,98201.63
2022-08-07T10:34:41.344Z,98191.22
2022-08-07T10:38:00.263Z,98186.53
2022-08-07T10:40:38.877Z,98195.41
2022-08-07T10:43:19.447Z,98184.84
2022-08-07T10:46:16.671Z,98176.94
2022-08-07T10:52:40.179Z,98172.97
2022-08-07T10:55:53.476Z,98165.56
2022-08-07T11:03:37.155Z,98173.00
2022-08-07T11:06:18.670Z,98161.19
2022-08-07T11:09:03.147Z,98162.06
2022-08-07T11:11:45.765Z,98162.34
2022-08-07T11:14:45.486Z,98162.88
2022-08-07T11:17:43.094Z,98166.19
2022-08-07T11:20:24.531Z,98153.78
2022-08-07T11:23:20.539Z,98147.19
2022-08-07T11:26:09.722Z,98150.94
2022-08-07T11:28:55.693Z,98157.00
2022-08-07T11:31:47.726Z,98151.47
2022-08-07T11:34:42.388Z,98140.44
2022-08-07T11:37:58.232Z,98142.97
2022-08-07T11:40:49.821Z,98134.50
2022-08-07T11:43:29.484Z,98131.56
2022-08-07T11:46:36.625Z,98125.19
2022-08-07T11:50:29.993Z,98118.16
2022-08-07T11:52:54.482Z,98126.72
2022-08-07T11:56:26.104Z,98105.13
2022-08-07T12:00:10.211Z,98107.06
2022-08-07T12:02:30.325Z,98114.59
2022-08-07T12:05:41.126Z,98109.59
2022-08-07T12:08:25.961Z,98108.78
2022-08-07T12:11:21.505Z,98103.94
2022-08-07T12:14:02.261Z,98092.69
2022-08-07T12:16:37.893Z,98102.84
2022-08-07T12:19:21.394Z,98091.44
2022-08-07T12:22:37.338Z,98090.53
2022-08-07T12:26:21.472Z,98088.97
2022-08-07T12:29:21.082Z,98082.66
2022-08-07T12:32:43.856Z,98076.19
2022-08-07T12:35:16.817Z,98077.28
2022-08-07T12:38:11.171Z,98076.25
2022-08-07T12:40:47.780Z,98075.56
2022-08-07T12:44:01.800Z,98075.63
2022-08-07T12:46:32.703Z,98071.19
2022-08-07T12:49:39.439Z,98061.81
2022-08-07T12:52:14.429Z,98065.88
2022-08-07T12:55:03.541Z,98058.78
2022-08-07T12:58:00.978Z,98047.19
2022-08-07T13:00:49.943Z,98041.16
2022-08-07T13:04:04.802Z,98048.16
2022-08-07T13:07:01.875Z,98052.38
2022-08-07T13:10:28.416Z,98062.13
2022-08-07T13:13:48.097Z,98049.84
2022-08-07T13:16:32.149Z,98051.16
2022-08-07T13:19:46.231Z,98044.56
2022-08-07T13:22:28.382Z,98055.31
2022-08-07T13:25:02.701Z,98037.41
2022-08-07T13:28:13.951Z,98043.25
2022-08-07T13:30:41.276Z,98028.22
2022-08-07T13:34:30.086Z,98019.34
2022-08-07T13:36:25.924Z,98021.78
2022-08-07T13:39:13.020Z,98016.53
2022-08-07T13:41:59.418Z,98005.66
2022-08-07T13:44:37.778Z,98004.53
2022-08-07T13:47:15.837Z,98009.97
2022-08-07T13:50:33.400Z,98008.34
2022-08-07T13:52:51.734Z,98006.94
2022-08-07T13:55:26.353Z,98001.88
2022-08-07T13:58:31.754Z,98001.50
2022-08-07T14:01:09.925Z,97990.34
2022-08-07T14:04:08.152Z,97980.25
2022-08-07T14:06:35.428Z,97979.72
2022-08-07T14:09:07.408Z,97990.69
2022-08-07T14:11:53.310Z,97990.50
2022-08-07T14:14:39.607Z,97988.97
2022-08-07T14:17:51.564Z,97975.00
2022-08-07T14:20:39.739Z,97981.69
2022-08-07T14:23:12.545Z,97981.81
2022-08-07T14:25:58.439Z,97975.38
2022-08-07T14:28:55.941Z,97976.56
2022-08-07T14:31:43.073Z,97981.00
2022-08-07T14:34:21.961Z,97981.50
2022-08-07T14:36:56.654Z,97964.59
2022-08-07T14:40:16.512Z,97970.59
2022-08-07T14:42:32.285Z,97971.38
2022-08-07T14:45:21.230Z,97972.72
2022-08-07T14:47:58.930Z,97978.47
2022-08-07T14:50:37.551Z,97973.50
2022-08-07T14:53:09.977Z,97977.13
2022-08-07T14:55:56.206Z,97965.13
2022-08-07T14:58:36.823Z,97968.59
2022-08-07T15:01:22.775Z,97965.16
2022-08-07T15:03:53.772Z,97967.53
2022-08-07T15:06:30.910Z,97970.00
2022-08-07T15:09:57.643Z,97969.31
2022-08-07T15:12:06.725Z,97969.72
2022-08-07T15:14:55.819Z,97957.75
2022-08-07T15:17:32.652Z,97963.66
2022-08-07T15:26:20.715Z,97959.38
2022-08-07T15:31:57.597Z,97952.94
2022-08-07T15:38:04.340Z,97949.56
2022-08-07T15:40:34.210Z,97954.41
2022-08-07T15:43:52.894Z,97954.31
2022-08-07T15:46:37.199Z,97953.38
2022-08-07T15:49:16.736Z,97950.06
2022-08-07T15:54:39.528Z,97950.09
2022-08-07T15:57:39.716Z,97951.31
2022-08-07T16:00:06.306Z,97951.75
2022-08-07T16:02:48.070Z,97950.41
2022-08-07T16:05:23.070Z,97947.13
2022-08-07T16:08:30.696Z,97949.81
2022-08-07T16:11:17.402Z,97938.88
2022-08-07T16:14:17.064Z,97941.91
2022-08-07T16:17:16.000Z,97944.34
2022-08-07T16:20:33.730Z,97941.53
2022-08-07T16:23:58.529Z,97944.91
2022-08-07T16:26:59.378Z,97940.88
2022-08-07T16:30:30.616Z,97944.28
2022-08-07T16:34:01.956Z,97940.91
2022-08-07T16:36:31.400Z,97945.19
2022-08-07T16:39:33.815Z,97936.50
2022-08-07T16:42:43.168Z,97932.56
2022-08-07T16:46:21.389Z,97937.59
2022-08-07T16:50:28.788Z,97937.88
2022-08-07T16:53:20.627Z,97939.75
2022-08-07T16:56:05.958Z,97938.56
2022-08-07T16:59:11.000Z,97956.91
2022-08-07T17:01:52.389Z,97947.63
2022-08-07T17:04:57.515Z,97950.38
2022-08-07T17:07:55.473Z,97953.97
2022-08-07T17:10:38.385Z,97944.78
2022-08-07T17:14:18.925Z,97956.31
2022-08-07T17:16:55.812Z,97958.03
2022-08-07T17:20:02.594Z,97961.00
2022-08-07T17:22:42.667Z,97967.09
2022-08-07T17:25:20.100Z,97966.66
2022-08-07T17:28:19.541Z,97965.28
2022-08-07T17:31:16.292Z,97963.69
2022-08-07T17:34:33.403Z,97961.88
2022-08-07T17:36:57.660Z,97968.28
2022-08-07T17:39:53.033Z,97978.50
2022-08-07T17:42:59.897Z,97980.75
2022-08-07T17:45:38.626Z,97978.28
2022-08-07T17:48:16.961Z,97990.66
2022-08-07T17:51:11.600Z,97981.28
2022-08-07T17:54:01.700Z,97980.50
2022-08-07T17:56:49.713Z,97980.50
2022-08-07T17:59:26.699Z,97990.78
2022-08-07T18:02:15.804Z,97986.53
2022-08-07T18:04:55.819Z,97994.88
2022-08-07T18:07:43.743Z,97988.50
2022-08-07T18:10:32.393Z,97996.09
2022-08-07T18:13:40.744Z,97992.66
2022-08-07T18:16:32.744Z,97993.88
2022-08-07T18:21:08.598Z,98009.34
2022-08-07T18:22:26.508Z,98007.47
2022-08-07T18:25:18.976Z,98013.47
2022-08-07T18:28:34.211Z,98011.09
2022-08-07T18:31:08.704Z,98016.69
2022-08-07T18:34:37.122Z,98023.09
2022-08-07T18:38:57.757Z,98022.31
2022-08-07T18:40:50.138Z,98024.34
2022-08-07T18:43:49.532Z,98032.66
2022-08-07T18:46:42.870Z,98036.63
2022-08-07T18:50:30.305Z,98050.50
2022-08-07T18:52:54.030Z,98048.16
2022-08-07T18:55:55.949Z,98044.19
2022-08-07T18:58:55.835Z,98056.06
2022-08-07T19:02:32.870Z,98056.06
2022-08-07T19:05:15.631Z,98060.78
2022-08-07T19:07:58.715Z,98066.31
2022-08-07T19:10:49.538Z,98076.63
2022-08-07T19:13:31.947Z,98077.81
2022-08-07T19:17:04.141Z,98075.41
2022-08-07T19:19:13.005Z,98088.84
2022-08-07T19:22:03.971Z,98089.66
2022-08-07T19:24:44.460Z,98094.00
2022-08-07T19:28:57.737Z,98095.56
2022-08-07T19:31:05.119Z,98101.91
2022-08-07T19:33:12.964Z,98104.28
2022-08-07T19:35:44.694Z,98105.38
2022-08-07T19:38:20.724Z,98111.72
2022-08-07T19:40:57.052Z,98111.22
2022-08-07T19:43:45.129Z,98113.19
2022-08-07T19:46:35.484Z,98109.97
2022-08-07T19:49:08.504Z,98111.50
2022-08-07T19:51:53.031Z,98110.72
2022-08-07T19:54:44.572Z,98111.03
2022-08-07T19:58:02.925Z,98105.84
2022-08-07T20:00:27.910Z,98118.78
2022-08-07T20:03:03.270Z,98111.31
2022-08-07T20:06:01.104Z,98113.25
2022-08-07T20:08:36.763Z,98109.63
2022-08-07T20:11:15.275Z,98114.41
2022-08-07T20:14:07.294Z,98114.63
2022-08-07T20:16:48.019Z,98113.47
2022-08-07T20:24:01.029Z,98116.09
2022-08-07T20:26:44.761Z,98118.00
2022-08-07T20:29:48.644Z,98111.75
2022-08-07T20:32:22.942Z,98118.41
2022-08-07T20:35:06.141Z,98111.56
2022-08-07T20:37:47.034Z,98123.06
2022-08-07T20:40:32.280Z,98126.50
2022-08-07T20:43:14.918Z,98132.75
2022-08-07T20:46:26.125Z,98121.94
2022-08-07T20:49:53.936Z,98122.19
2022-08-07T20:51:50.466Z,98127.75
2022-08-07T20:54:30.095Z,98131.97
2022-08-07T20:57:08.337Z,98124.06
2022-08-07T21:00:06.762Z,98122.75
2022-08-07T21:02:53.951Z,98119.06
2022-08-07T21:05:52.858Z,98123.13
2022-08-07T21:08:36.757Z,98129.16
2022-08-07T21:11:14.185Z,98128.97
2022-08-07T21:14:20.218Z,98121.72
2022-08-07T21:17:06.615Z,98121.16
2022-08-07T21:19:51.072Z,98124.63
2022-08-07T21:22:33.292Z,98122.66
2022-08-07T21:25:17.795Z,98115.88
2022-08-07T21:28:05.395Z,98105.09
2022-08-07T21:30:57.809Z,98109.50
2022-08-07T21:33:41.681Z,98112.22
2022-08-07T21:36:31.425Z,98112.28
2022-08-07T21:39:46.469Z,98112.41
2022-08-07T21:42:42.339Z,98110.13
2022-08-07T21:46:05.086Z,98110.47
2022-08-07T21:48:27.616Z,98121.41
2022-08-07T21:51:12.459Z,98120.38
2022-08-07T21:53:54.228Z,98120.31
2022-08-07T21:56:48.192Z,98121.97
2022-08-07T22:00:04.486Z,98121.84
2022-08-07T22:02:45.640Z,98125.13
2022-08-07T22:05:46.296Z,98121.47
2022-08-07T22:08:18.950Z,98121.84
2022-08-07T22:10:53.506Z,98125.47
2022-08-07T22:13:50.524Z,98130.63
2022-08-07T22:16:40.096Z,98139.31
2022-08-07T22:19:23.461Z,98132.03
2022-08-07T22:22:20.742Z,98133.72
2022-08-07T22:25:10.832Z,98138.53
2022-08-07T22:28:08.293Z,98136.38
2022-08-07T22:30:53.811Z,98137.84
2022-08-07T22:33:53.253Z,98137.91
2022-08-07T22:36:38.454Z,98140.84
2022-08-07T22:39:23.299Z,98141.78
2022-08-07T22:42:19.541Z,98144.09
2022-08-07T22:44:58.328Z,98143.03
2022-08-07T22:48:31.825Z,98140.91
2022-08-07T22:51:36.709Z,98135.53
2022-08-07T22:54:34.862Z,98138.31
2022-08-07T22:57:25.930Z,98140.81
2022-08-07T23:00:04.662Z,98144.38
2022-08-07T23:02:55.342Z,98144.09
2022-08-07T23:06:08.527Z,98142.31
2022-08-07T23:10:00.855Z,98145.88
2022-08-07T23:12:21.094Z,98148.13
2022-08-07T23:16:07.211Z,98153.53
2022-08-07T23:18:42.329Z,98152.81
2022-08-07T23:21:30.135Z,98151.34
2022-08-07T23:24:27.986Z,98157.47
2022-08-07T23:28:22.948Z,98152.47
2022-08-07T23:30:43.273Z,98148.72
2022-08-07T23:34:36.661Z,98148.72
2022-08-07T23:37:19.398Z,98148.09
2022-08-07T23:39:55.361Z,98158.13
2022-08-07T23:42:41.890Z,98155.81
2022-08-07T23:45:49.912Z,98158.16
2022-08-07T23:48:41.980Z,98163.75
2022-08-07T23:53:01.377Z,98160.34
2022-08-07T23:54:36.106Z,98148.28
2022-08-07T23:57:18.568Z,98154.84
